Indianapolis, Indiana
Current Conditions -  °F | °C
As of 2:54 AM on Thursday 23 Oct 2014 (Local Time) from KIND Reporting Station
Clear Clear  
Wind Chill: 42°   Ceiling: Unl
Heat Index: 42°   Visibility: 9mi
Dew Point: 38°   Wind: 3mph
Humidity: 85%   Direction: 90°E
Pressure: 30.26"   Gusts: NA
Location:  39.77°N, 86.15°W
Report Text: KIND 230654Z 09003KT 9SM CLR 06/03 A3026 RMK AO2 SLP250 T00560033
Loading
Personal Weather Stations






























Interactive Weather Map
Tropical Storm Tracking
New forecast layout! Learn more

10-Day Weather Forecast

Advertisements
Track Severe Weather on mobile